Ashburn, Virginia
Current Conditions -  °F | °C
As of 2:15 AM on Wednesday 22 Oct 2014 (Local Time) from KJYO Reporting Station
Drizzle Drizzle  
Wind Chill: 52°   Ceiling: 2700
Heat Index: 52°   Visibility: 10mi
Dew Point: 52°   Wind: 8mph
Humidity: 100%   Direction: 340°NNW
Pressure: 29.91"   Gusts: NA
Location:  39.04°N, 77.48°W
Report Text: KJYO 220615Z AUTO 34007KT 10SM -DZ BKN027 BKN035 OVC050 11/11 A2991 RMK AO2 LTG DSNT NE
Loading
Personal Weather Stations






























Interactive Weather Map
Tropical Storm Tracking
New forecast layout! Learn more

10-Day Weather Forecast

Advertisements
Track Severe Weather on mobile